createdAt,value
2019-02-17T00:00:11.418Z,101350.81
2019-02-17T00:02:19.410Z,101350.67
2019-02-17T00:04:27.168Z,101351.55
2019-02-17T00:06:34.871Z,101352.95
2019-02-17T00:08:42.600Z,101348.41
2019-02-17T00:10:50.209Z,101343.19
2019-02-17T00:12:57.937Z,101348.86
2019-02-17T00:15:05.935Z,101353.10
2019-02-17T00:17:13.678Z,101347.03
2019-02-17T00:19:21.323Z,101348.89
2019-02-17T00:21:29.195Z,101351.87
2019-02-17T00:23:37.020Z,101356.40
2019-02-17T00:25:44.691Z,101362.89
2019-02-17T00:27:52.529Z,101352.43
2019-02-17T00:30:00.322Z,101355.88
2019-02-17T00:32:07.985Z,101350.02
2019-02-17T00:34:15.761Z,101348.79
2019-02-17T00:36:23.564Z,101350.55
2019-02-17T00:38:31.478Z,101353.62
2019-02-17T00:40:39.272Z,101353.66
2019-02-17T00:42:47.343Z,101359.36
2019-02-17T00:44:55.195Z,101353.73
2019-02-17T00:47:02.887Z,101354.42
2019-02-17T00:49:10.652Z,101355.27
2019-02-17T00:51:18.303Z,101355.20
2019-02-17T00:53:26.042Z,101355.20
2019-02-17T00:55:33.818Z,101366.07
2019-02-17T00:57:41.470Z,101369.06
2019-02-17T00:59:49.148Z,101369.98
2019-02-17T01:01:56.862Z,101371.35
2019-02-17T01:04:04.687Z,101364.73
2019-02-17T01:06:12.486Z,101367.45
2019-02-17T01:08:20.245Z,101369.28
2019-02-17T01:10:27.918Z,101370.60
2019-02-17T01:12:35.692Z,101366.98
2019-02-17T01:14:43.651Z,101366.59
2019-02-17T01:16:51.526Z,101368.52
2019-02-17T01:18:59.216Z,101364.67
2019-02-17T01:21:06.831Z,101358.16
2019-02-17T01:23:14.493Z,101354.78
2019-02-17T01:25:22.300Z,101351.85
2019-02-17T01:27:30.065Z,101353.62
2019-02-17T01:29:37.693Z,101352.23
2019-02-17T01:31:45.394Z,101354.83
2019-02-17T01:33:53.105Z,101361.91
2019-02-17T01:36:00.922Z,101355.02
2019-02-17T01:38:08.516Z,101351.09
2019-02-17T01:40:16.026Z,101353.77
2019-02-17T01:42:23.865Z,101353.38
2019-02-17T01:44:31.628Z,101353.45
2019-02-17T01:46:39.350Z,101353.45
2019-02-17T01:48:47.022Z,101350.84
2019-02-17T01:50:54.854Z,101357.47
2019-02-17T01:53:02.301Z,101352.69
2019-02-17T01:55:10.154Z,101354.47
2019-02-17T01:57:17.698Z,101359.77
2019-02-17T01:59:30.548Z,101360.20
2019-02-17T02:01:34.974Z,101364.12
2019-02-17T02:03:42.624Z,101357.14
2019-02-17T02:05:50.222Z,101366.36
2019-02-17T02:07:57.840Z,101363.34
2019-02-17T02:10:06.148Z,101359.88
2019-02-17T02:12:13.924Z,101372.49
2019-02-17T02:14:21.554Z,101370.28
2019-02-17T02:16:29.333Z,101360.80
2019-02-17T02:18:36.989Z,101365.97
2019-02-17T02:20:44.720Z,101368.20
2019-02-17T02:22:52.384Z,101364.33
2019-02-17T02:25:00.221Z,101363.47
2019-02-17T02:27:07.906Z,101358.25
2019-02-17T02:29:15.567Z,101362.62
2019-02-17T02:31:23.426Z,101357.47
2019-02-17T02:33:31.167Z,101354.85
2019-02-17T02:35:39.187Z,101355.31
2019-02-17T02:37:46.927Z,101357.02
2019-02-17T02:39:54.628Z,101356.11
2019-02-17T02:42:02.499Z,101360.08
2019-02-17T02:44:10.246Z,101357.99
2019-02-17T02:46:18.050Z,101354.97
2019-02-17T02:48:25.984Z,101358.45
2019-02-17T02:50:33.724Z,101361.06
2019-02-17T02:52:41.437Z,101360.60
2019-02-17T02:54:49.167Z,101356.69
2019-02-17T02:56:56.887Z,101365.37
2019-02-17T02:59:04.684Z,101367.19
2019-02-17T03:01:12.752Z,101369.36
2019-02-17T03:03:20.533Z,101363.72
2019-02-17T03:05:28.051Z,101365.94
2019-02-17T03:07:35.623Z,101376.80
2019-02-17T03:09:43.210Z,101375.09
2019-02-17T03:11:50.931Z,101369.03
2019-02-17T03:13:58.660Z,101369.01
2019-02-17T03:16:06.519Z,101374.23
2019-02-17T03:18:14.137Z,101365.55
2019-02-17T03:20:21.496Z,101368.55
2019-02-17T03:22:29.222Z,101354.66
2019-02-17T03:24:36.846Z,101365.09
2019-02-17T03:26:44.686Z,101359.89
2019-02-17T03:28:52.322Z,101359.48
2019-02-17T03:31:00.085Z,101357.77
2019-02-17T03:33:07.882Z,101356.02
2019-02-17T03:35:15.708Z,101359.52
2019-02-17T03:37:23.081Z,101359.53
2019-02-17T03:39:30.623Z,101359.54
2019-02-17T03:41:38.472Z,101362.55
2019-02-17T03:43:46.388Z,101357.84
2019-02-17T03:45:54.079Z,101360.45
2019-02-17T03:48:01.855Z,101359.59
2019-02-17T03:50:09.531Z,101357.84
2019-02-17T03:52:17.317Z,101358.73
2019-02-17T03:54:24.967Z,101361.80
2019-02-17T03:56:32.649Z,101360.95
2019-02-17T03:58:40.329Z,101363.13
2019-02-17T04:00:47.960Z,101366.67
2019-02-17T04:02:55.617Z,101366.67
2019-02-17T04:05:03.507Z,101353.23
2019-02-17T04:07:11.027Z,101358.50
2019-02-17T04:09:18.715Z,101358.84
2019-02-17T04:11:26.557Z,101360.16
2019-02-17T04:13:34.485Z,101357.11
2019-02-17T04:15:42.117Z,101346.65
2019-02-17T04:17:49.782Z,101351.02
2019-02-17T04:19:57.505Z,101351.02
2019-02-17T04:22:05.160Z,101342.33
2019-02-17T04:24:12.854Z,101348.86
2019-02-17T04:26:20.393Z,101341.03
2019-02-17T04:28:28.183Z,101344.04
2019-02-17T04:30:35.783Z,101344.00
2019-02-17T04:32:43.475Z,101342.28
2019-02-17T04:34:51.219Z,101344.04
2019-02-17T04:36:58.832Z,101349.26
2019-02-17T04:39:07.687Z,101351.87
2019-02-17T04:41:15.484Z,101355.44
2019-02-17T04:43:23.305Z,101360.22
2019-02-17T04:45:30.884Z,101362.37
2019-02-17T04:47:38.552Z,101362.83
2019-02-17T04:49:46.364Z,101368.09
2019-02-17T04:51:54.099Z,101367.63
2019-02-17T04:54:01.732Z,101366.80
2019-02-17T04:56:09.429Z,101371.66
2019-02-17T04:58:17.005Z,101390.38
2019-02-17T05:00:24.643Z,101385.25
2019-02-17T05:02:32.249Z,101389.53
2019-02-17T05:04:39.983Z,101379.53
2019-02-17T05:06:47.867Z,101393.94
2019-02-17T05:08:55.530Z,101399.11
2019-02-17T05:11:03.071Z,101397.84
2019-02-17T05:13:10.751Z,101395.69
2019-02-17T05:15:18.494Z,101400.05
2019-02-17T05:17:26.204Z,101400.09
2019-02-17T05:19:33.872Z,101397.85
2019-02-17T05:21:41.453Z,101393.49
2019-02-17T05:23:49.135Z,101393.57
2019-02-17T05:25:56.587Z,101397.48
2019-02-17T05:28:04.212Z,101404.01
2019-02-17T05:30:12.119Z,101411.43
2019-02-17T05:32:19.617Z,101420.15
2019-02-17T05:34:27.356Z,101428.42
2019-02-17T05:36:35.110Z,101427.16
2019-02-17T05:38:42.786Z,101434.50
2019-02-17T05:40:50.434Z,101424.52
2019-02-17T05:42:58.259Z,101423.69
2019-02-17T05:45:07.433Z,101433.72
2019-02-17T05:47:14.944Z,101435.47
2019-02-17T05:49:22.610Z,101435.91
2019-02-17T05:51:30.361Z,101437.18
2019-02-17T05:53:37.917Z,101434.98
2019-02-17T05:55:45.618Z,101428.50
2019-02-17T05:57:53.293Z,101445.45
2019-02-17T06:00:01.001Z,101439.79
2019-02-17T06:02:08.695Z,101437.63
2019-02-17T06:04:16.361Z,101444.15
2019-02-17T06:06:24.103Z,101445.04
2019-02-17T06:08:32.275Z,101445.45
2019-02-17T06:10:40.066Z,101445.42
2019-02-17T06:12:47.850Z,101447.20
2019-02-17T06:14:55.744Z,101447.20
2019-02-17T06:17:03.571Z,101450.22
2019-02-17T06:19:11.286Z,101453.72
2019-02-17T06:21:18.960Z,101458.49
2019-02-17T06:23:26.686Z,101448.50
2019-02-17T06:25:34.539Z,101443.25
2019-02-17T06:27:42.308Z,101447.20
2019-02-17T06:29:49.968Z,101445.04
2019-02-17T06:31:57.637Z,101450.22
2019-02-17T06:34:05.329Z,101448.44
2019-02-17T06:36:13.139Z,101446.27
2019-02-17T06:38:20.989Z,101440.16
2019-02-17T06:40:28.711Z,101446.20
2019-02-17T06:42:36.447Z,101448.81
2019-02-17T06:44:44.156Z,101446.16
2019-02-17T06:46:56.228Z,101446.53
2019-02-17T06:49:04.025Z,101453.09
2019-02-17T06:51:11.893Z,101460.06
2019-02-17T06:53:19.590Z,101460.47
2019-02-17T06:55:42.061Z,101469.56
2019-02-17T06:57:49.767Z,101462.55
2019-02-17T07:00:12.236Z,101467.77
2019-02-17T07:02:19.971Z,101474.75
2019-02-17T07:04:49.757Z,101465.11
2019-02-17T07:07:01.353Z,101466.38
2019-02-17T07:09:09.634Z,101464.17
2019-02-17T07:11:17.626Z,101472.81
2019-02-17T07:13:25.270Z,101466.24
2019-02-17T07:15:32.976Z,101469.25
2019-02-17T07:17:40.774Z,101475.24
2019-02-17T07:19:48.484Z,101479.64
2019-02-17T07:21:56.402Z,101474.37
2019-02-17T07:24:04.256Z,101473.48
2019-02-17T07:26:12.295Z,101483.02
2019-02-17T07:28:19.901Z,101477.39
2019-02-17T07:30:27.635Z,101474.37
2019-02-17T07:32:35.510Z,101477.84
2019-02-17T07:34:43.371Z,101462.98
2019-02-17T07:36:51.080Z,101466.39
2019-02-17T07:38:58.743Z,101464.19
2019-02-17T07:41:06.572Z,101467.30
2019-02-17T07:43:14.404Z,101471.61
2019-02-17T07:45:22.339Z,101472.47
2019-02-17T07:47:30.155Z,101466.33
2019-02-17T07:49:37.944Z,101466.27
2019-02-17T07:51:45.669Z,101471.00
2019-02-17T07:53:53.499Z,101462.24
2019-02-17T07:56:01.172Z,101472.25
2019-02-17T07:58:08.917Z,101466.56
2019-02-17T08:00:16.814Z,101461.73
2019-02-17T08:02:24.441Z,101465.19
2019-02-17T08:04:32.138Z,101465.13
2019-02-17T08:06:39.915Z,101459.86
2019-02-17T08:08:47.739Z,101472.06
2019-02-17T08:11:03.669Z,101470.31
2019-02-17T08:13:06.120Z,101471.99
2019-02-17T08:15:13.880Z,101468.02
2019-02-17T08:17:21.721Z,101464.89
2019-02-17T08:19:29.733Z,101460.89
2019-02-17T08:21:37.651Z,101465.66
2019-02-17T08:23:45.444Z,101460.76
2019-02-17T08:25:53.233Z,101459.83
2019-02-17T08:28:01.173Z,101460.55
2019-02-17T08:30:10.410Z,101460.08
2019-02-17T08:32:18.252Z,101461.71
2019-02-17T08:34:25.963Z,101470.92
2019-02-17T08:36:34.194Z,101470.02
2019-02-17T08:38:42.284Z,101478.27
2019-02-17T08:40:50.028Z,101485.23
2019-02-17T08:42:57.998Z,101480.80
2019-02-17T08:45:06.137Z,101483.41
2019-02-17T08:47:13.933Z,101480.78
2019-02-17T08:49:21.694Z,101474.23
2019-02-17T08:51:29.349Z,101474.55
2019-02-17T08:53:37.090Z,101479.40
2019-02-17T08:55:44.918Z,101485.50
2019-02-17T08:57:52.749Z,101491.97
2019-02-17T09:00:00.557Z,101497.17
2019-02-17T09:02:08.413Z,101491.03
2019-02-17T09:04:16.404Z,101486.95
2019-02-17T09:06:24.243Z,101490.69
2019-02-17T09:08:32.010Z,101485.31
2019-02-17T09:10:40.102Z,101491.81
2019-02-17T09:12:47.891Z,101488.86
2019-02-17T09:14:55.747Z,101491.02
2019-02-17T09:17:03.665Z,101496.50
2019-02-17T09:19:11.785Z,101491.59
2019-02-17T09:21:19.671Z,101501.54
2019-02-17T09:23:27.429Z,101497.98
2019-02-17T09:25:35.228Z,101506.33
2019-02-17T09:27:43.299Z,101509.85
2019-02-17T09:29:51.103Z,101504.55
2019-02-17T09:31:59.524Z,101502.58
2019-02-17T09:34:07.533Z,101502.69
2019-02-17T09:36:15.201Z,101502.00
2019-02-17T09:38:23.123Z,101507.75
2019-02-17T09:40:30.838Z,101500.44
2019-02-17T09:42:38.949Z,101489.66
2019-02-17T09:44:46.725Z,101507.05
2019-02-17T09:46:54.515Z,101498.69
2019-02-17T09:49:02.660Z,101504.25
2019-02-17T09:51:10.455Z,101502.47
2019-02-17T09:53:19.020Z,101515.47
2019-02-17T09:55:27.030Z,101512.95
2019-02-17T09:57:35.220Z,101519.98
2019-02-17T09:59:43.195Z,101518.56
2019-02-17T10:01:51.560Z,101515.13
2019-02-17T10:03:59.272Z,101513.74
2019-02-17T10:06:07.097Z,101518.89
2019-02-17T10:08:15.067Z,101507.93
2019-02-17T10:10:24.033Z,101515.47
2019-02-17T10:12:32.337Z,101505.84
2019-02-17T10:14:40.720Z,101517.07
2019-02-17T10:16:49.691Z,101517.45
2019-02-17T10:18:57.604Z,101513.59
2019-02-17T10:21:05.334Z,101514.38
2019-02-17T10:23:13.697Z,101511.83
2019-02-17T10:25:22.300Z,101511.44
2019-02-17T10:27:30.229Z,101512.55
2019-02-17T10:29:37.948Z,101511.81
2019-02-17T10:31:45.653Z,101503.22
2019-02-17T10:33:53.630Z,101510.62
2019-02-17T10:36:01.744Z,101506.20
2019-02-17T10:38:09.590Z,101505.24
2019-02-17T10:40:17.639Z,101504.73
2019-02-17T10:42:25.631Z,101511.63
2019-02-17T10:44:33.517Z,101513.19
2019-02-17T10:46:41.477Z,101517.39
2019-02-17T10:48:49.049Z,101517.13
2019-02-17T10:50:56.975Z,101516.03
2019-02-17T10:53:05.426Z,101513.76
2019-02-17T10:55:14.158Z,101511.48
2019-02-17T10:57:21.861Z,101511.37
2019-02-17T10:59:29.438Z,101501.78
2019-02-17T11:01:37.679Z,101502.95
2019-02-17T11:04:11.994Z,101498.41
2019-02-17T11:06:19.687Z,101500.06
2019-02-17T11:08:27.378Z,101507.37
2019-02-17T11:10:35.213Z,101503.23
2019-02-17T11:12:43.251Z,101497.46
2019-02-17T11:14:51.097Z,101499.45
2019-02-17T11:16:59.111Z,101499.41
2019-02-17T11:19:07.120Z,101502.77
2019-02-17T11:21:15.126Z,101503.16
2019-02-17T11:23:22.950Z,101509.67
2019-02-17T11:25:31.089Z,101505.64
2019-02-17T11:27:39.145Z,101504.70
2019-02-17T11:29:46.780Z,101503.35
2019-02-17T11:31:54.860Z,101502.86
2019-02-17T11:34:02.867Z,101500.61
2019-02-17T11:36:10.944Z,101496.12
2019-02-17T11:38:18.856Z,101497.92
2019-02-17T11:40:26.900Z,101499.11
2019-02-17T11:42:34.839Z,101501.19
2019-02-17T11:44:42.609Z,101503.39
2019-02-17T11:46:50.636Z,101496.72
2019-02-17T11:48:58.901Z,101494.92
2019-02-17T11:51:07.611Z,101487.83
2019-02-17T11:53:15.822Z,101480.97
2019-02-17T11:55:23.927Z,101487.47
2019-02-17T11:57:31.862Z,101491.02
2019-02-17T11:59:40.220Z,101497.86
2019-02-17T12:01:48.369Z,101491.23
2019-02-17T12:03:57.238Z,101492.44
2019-02-17T12:06:05.193Z,101490.73
2019-02-17T12:08:13.205Z,101494.51
2019-02-17T12:10:21.193Z,101498.52
2019-02-17T12:12:29.109Z,101485.47
2019-02-17T12:14:37.251Z,101492.11
2019-02-17T12:16:45.179Z,101495.89
2019-02-17T12:18:53.040Z,101494.55
2019-02-17T12:21:19.700Z,101498.95
2019-02-17T12:23:43.145Z,101498.45
2019-02-17T12:26:09.852Z,101491.26
2019-02-17T12:28:48.617Z,101497.47
2019-02-17T12:30:56.451Z,101497.47
2019-02-17T12:33:04.187Z,101496.95
2019-02-17T12:35:12.145Z,101495.83
2019-02-17T12:37:19.920Z,101494.08
2019-02-17T12:39:27.628Z,101491.95
2019-02-17T12:41:35.707Z,101488.43
2019-02-17T12:43:43.969Z,101483.66
2019-02-17T12:45:51.939Z,101482.81
2019-02-17T12:47:59.706Z,101481.06
2019-02-17T12:50:08.420Z,101486.42
2019-02-17T12:52:16.289Z,101482.74
2019-02-17T12:54:29.111Z,101486.82
2019-02-17T12:56:33.574Z,101486.36
2019-02-17T12:58:41.370Z,101483.40
2019-02-17T13:00:49.121Z,101489.12
2019-02-17T13:02:56.906Z,101481.16
2019-02-17T13:05:05.058Z,101478.59
2019-02-17T13:07:12.708Z,101484.65
2019-02-17T13:09:20.659Z,101486.85
2019-02-17T13:11:28.474Z,101485.53
2019-02-17T13:13:36.094Z,101481.36
2019-02-17T13:15:43.813Z,101485.67
2019-02-17T13:17:53.061Z,101479.91
2019-02-17T13:20:00.741Z,101484.65
2019-02-17T13:22:08.426Z,101480.28
2019-02-17T13:24:16.289Z,101473.80
2019-02-17T13:26:24.254Z,101478.59
2019-02-17T13:28:31.937Z,101475.08
2019-02-17T13:30:39.592Z,101470.25
2019-02-17T13:32:47.770Z,101473.34
2019-02-17T13:34:55.502Z,101468.94
2019-02-17T13:37:03.286Z,101473.41
2019-02-17T13:39:11.227Z,101475.08
2019-02-17T13:41:18.912Z,101473.31
2019-02-17T13:43:26.725Z,101471.17
2019-02-17T13:45:34.560Z,101464.63
2019-02-17T13:47:42.488Z,101466.89
2019-02-17T13:49:50.412Z,101467.42
2019-02-17T13:51:58.207Z,101459.50
2019-02-17T13:54:06.171Z,101468.14
2019-02-17T13:56:14.469Z,101466.50
2019-02-17T13:58:22.130Z,101474.88
2019-02-17T14:00:29.878Z,101470.87
2019-02-17T14:02:37.691Z,101476.20
2019-02-17T14:04:45.618Z,101470.45
2019-02-17T14:06:53.456Z,101475.28
2019-02-17T14:09:01.395Z,101475.77
2019-02-17T14:11:09.439Z,101470.52
2019-02-17T14:13:17.274Z,101475.77
2019-02-17T14:15:25.431Z,101475.44
2019-02-17T14:17:33.387Z,101478.50
2019-02-17T14:19:41.536Z,101478.06
2019-02-17T14:21:49.417Z,101484.31
2019-02-17T14:23:57.412Z,101479.97
2019-02-17T14:26:05.320Z,101477.83
2019-02-17T14:28:12.999Z,101471.36
2019-02-17T14:30:21.281Z,101472.24
2019-02-17T14:32:29.156Z,101469.22
2019-02-17T14:34:37.672Z,101476.28
2019-02-17T14:36:45.799Z,101466.25
2019-02-17T14:38:54.020Z,101467.14
2019-02-17T14:41:02.156Z,101461.39
2019-02-17T14:43:10.342Z,101466.65
2019-02-17T14:45:18.541Z,101470.20
2019-02-17T14:47:26.889Z,101473.70
2019-02-17T14:49:35.712Z,101471.57
2019-02-17T14:51:43.687Z,101471.66
2019-02-17T14:53:51.448Z,101467.23
2019-02-17T14:55:59.543Z,101475.21
2019-02-17T14:58:07.391Z,101475.61
2019-02-17T15:00:15.731Z,101472.59
2019-02-17T15:02:23.378Z,101467.81
2019-02-17T15:04:31.825Z,101474.33
2019-02-17T15:06:39.869Z,101468.31
2019-02-17T15:08:48.051Z,101469.19
2019-02-17T15:10:56.378Z,101472.64
2019-02-17T15:13:04.465Z,101467.87
2019-02-17T15:15:12.614Z,101472.30
2019-02-17T15:17:20.349Z,101471.33
2019-02-17T15:19:29.074Z,101468.31
2019-02-17T15:21:37.402Z,101467.84
2019-02-17T15:23:45.723Z,101458.28
2019-02-17T15:25:54.215Z,101465.25
2019-02-17T15:28:04.983Z,101466.17
2019-02-17T15:30:14.563Z,101464.03
2019-02-17T15:32:22.610Z,101458.83
2019-02-17T15:34:30.696Z,101464.16
2019-02-17T15:36:38.767Z,101464.18
2019-02-17T15:38:46.969Z,101461.64
2019-02-17T15:40:54.940Z,101458.09
2019-02-17T15:43:02.968Z,101459.88
2019-02-17T15:45:12.048Z,101459.02
2019-02-17T15:47:19.902Z,101456.78
2019-02-17T15:49:28.165Z,101459.08
2019-02-17T15:51:36.238Z,101453.02
2019-02-17T15:53:44.773Z,101464.45
2019-02-17T15:55:52.863Z,101464.42
2019-02-17T15:58:01.187Z,101460.14
2019-02-17T16:00:12.679Z,101471.14
2019-02-17T16:02:21.196Z,101461.94
2019-02-17T16:04:29.711Z,101462.00
2019-02-17T16:06:37.630Z,101464.97
2019-02-17T16:08:45.774Z,101456.20
2019-02-17T16:10:53.847Z,101467.20
2019-02-17T16:13:01.886Z,101465.55
2019-02-17T16:15:12.748Z,101467.44
2019-02-17T16:17:20.881Z,101466.17
2019-02-17T16:19:28.616Z,101472.69
2019-02-17T16:21:36.627Z,101474.05
2019-02-17T16:23:44.561Z,101469.72
2019-02-17T16:25:52.440Z,101468.41
2019-02-17T16:28:00.479Z,101478.05
2019-02-17T16:30:12.165Z,101471.56
2019-02-17T16:32:21.743Z,101473.83
2019-02-17T16:34:38.037Z,101473.89
2019-02-17T16:36:39.215Z,101482.08
2019-02-17T16:38:47.183Z,101475.56
2019-02-17T16:40:55.057Z,101479.05
2019-02-17T16:43:02.917Z,101479.16
2019-02-17T16:45:12.707Z,101482.73
2019-02-17T16:47:21.855Z,101485.73
2019-02-17T16:49:29.726Z,101482.38
2019-02-17T16:51:37.983Z,101486.81
2019-02-17T16:53:45.769Z,101484.58
2019-02-17T16:55:53.715Z,101485.52
2019-02-17T16:58:01.678Z,101487.20
2019-02-17T17:00:12.334Z,101489.78
2019-02-17T17:02:20.295Z,101488.09
2019-02-17T17:04:28.489Z,101494.42
2019-02-17T17:06:36.605Z,101496.13
2019-02-17T17:08:44.679Z,101489.91
2019-02-17T17:10:53.106Z,101488.25
2019-02-17T17:13:01.952Z,101486.95
2019-02-17T17:15:10.360Z,101495.41
2019-02-17T17:17:18.327Z,101493.51
2019-02-17T17:19:26.408Z,101494.47
2019-02-17T17:21:34.490Z,101494.09
2019-02-17T17:23:42.568Z,101496.16
2019-02-17T17:25:50.602Z,101493.59
2019-02-17T17:27:59.592Z,101501.47
2019-02-17T17:30:08.264Z,101491.92
2019-02-17T17:32:16.924Z,101492.45
2019-02-17T17:34:24.970Z,101498.16
2019-02-17T17:36:33.576Z,101504.63
2019-02-17T17:38:41.742Z,101499.58
2019-02-17T17:40:50.088Z,101497.44
2019-02-17T17:42:58.100Z,101496.12
2019-02-17T17:45:06.996Z,101494.81
2019-02-17T17:47:16.343Z,101484.21
2019-02-17T17:49:24.998Z,101483.33
2019-02-17T17:51:34.419Z,101478.21
2019-02-17T17:53:43.290Z,101489.54
2019-02-17T17:55:51.433Z,101488.61
2019-02-17T17:57:59.264Z,101484.23
2019-02-17T18:00:08.712Z,101477.17
2019-02-17T18:02:16.317Z,101484.21
2019-02-17T18:04:24.430Z,101486.09
2019-02-17T18:06:33.010Z,101482.55
2019-02-17T18:08:41.338Z,101483.03
2019-02-17T18:10:49.342Z,101478.08
2019-02-17T18:12:57.738Z,101490.40
2019-02-17T18:15:06.364Z,101488.73
2019-02-17T18:17:14.368Z,101487.45
2019-02-17T18:19:22.373Z,101487.98
2019-02-17T18:21:30.452Z,101483.97
2019-02-17T18:23:38.447Z,101486.59
2019-02-17T18:25:46.468Z,101490.42
2019-02-17T18:27:54.557Z,101486.19
2019-02-17T18:30:02.957Z,101486.54
2019-02-17T18:32:11.278Z,101486.94
2019-02-17T18:34:20.191Z,101498.13
2019-02-17T18:36:28.165Z,101491.23
2019-02-17T18:38:36.367Z,101496.98
2019-02-17T18:40:47.204Z,101488.84
2019-02-17T18:42:53.927Z,101486.19
2019-02-17T18:45:02.424Z,101488.76
2019-02-17T18:47:10.938Z,101485.76
2019-02-17T18:49:18.835Z,101491.09
2019-02-17T18:51:26.792Z,101495.48
2019-02-17T18:53:35.087Z,101495.86
2019-02-17T18:55:43.691Z,101491.69
2019-02-17T18:57:51.480Z,101496.59
2019-02-17T18:59:59.239Z,101492.15
2019-02-17T19:02:07.213Z,101488.13
2019-02-17T19:04:15.205Z,101486.80
2019-02-17T19:06:23.410Z,101487.20
2019-02-17T19:08:33.699Z,101481.91
2019-02-17T19:10:41.850Z,101488.03
2019-02-17T19:12:50.052Z,101485.01
2019-02-17T19:14:57.804Z,101479.26
2019-02-17T19:17:06.730Z,101482.86
2019-02-17T19:19:15.060Z,101481.55
2019-02-17T19:21:23.771Z,101482.43
2019-02-17T19:23:32.056Z,101484.68
2019-02-17T19:25:40.050Z,101487.41
2019-02-17T19:27:48.661Z,101493.56
2019-02-17T19:29:56.642Z,101490.03
2019-02-17T19:32:04.689Z,101485.69
2019-02-17T19:34:12.850Z,101496.48
2019-02-17T19:36:20.940Z,101493.48
2019-02-17T19:38:29.195Z,101506.33
2019-02-17T19:40:37.148Z,101499.86
2019-02-17T19:42:45.104Z,101494.64
2019-02-17T19:44:53.164Z,101499.33
2019-02-17T19:47:02.074Z,101510.76
2019-02-17T19:49:10.111Z,101512.80
2019-02-17T19:51:18.292Z,101507.52
2019-02-17T19:53:26.324Z,101514.19
2019-02-17T19:55:34.807Z,101511.29
2019-02-17T19:57:43.356Z,101513.95
2019-02-17T19:59:51.045Z,101514.79
2019-02-17T20:01:58.834Z,101511.69
2019-02-17T20:04:31.851Z,101520.75
2019-02-17T20:06:39.570Z,101516.45
2019-02-17T20:08:48.008Z,101516.94
2019-02-17T20:10:56.724Z,101508.59
2019-02-17T20:13:05.097Z,101516.48
2019-02-17T20:15:12.788Z,101515.15
2019-02-17T20:17:20.678Z,101517.77
2019-02-17T20:19:28.543Z,101518.70
2019-02-17T20:21:36.249Z,101512.64
2019-02-17T20:23:44.104Z,101516.45
2019-02-17T20:25:52.130Z,101515.70
2019-02-17T20:28:00.267Z,101521.06
2019-02-17T20:30:08.714Z,101525.09
2019-02-17T20:32:16.662Z,101516.34
2019-02-17T20:34:25.522Z,101511.98
2019-02-17T20:36:33.815Z,101518.95
2019-02-17T20:38:41.912Z,101516.77
2019-02-17T20:40:49.823Z,101527.28
2019-02-17T20:42:57.324Z,101530.00
2019-02-17T20:45:05.767Z,101525.20
2019-02-17T20:47:13.872Z,101520.48
2019-02-17T20:49:21.813Z,101521.86
2019-02-17T20:51:29.672Z,101526.65
2019-02-17T20:53:37.466Z,101526.23
2019-02-17T20:55:45.479Z,101535.17
2019-02-17T20:57:53.273Z,101528.32
2019-02-17T21:00:01.251Z,101530.58
2019-02-17T21:02:09.123Z,101532.44
2019-02-17T21:04:17.290Z,101530.27
2019-02-17T21:06:25.652Z,101526.76
2019-02-17T21:08:33.501Z,101530.40
2019-02-17T21:10:41.394Z,101532.18
2019-02-17T21:12:49.524Z,101537.39
2019-02-17T21:14:57.156Z,101536.11
2019-02-17T21:17:06.893Z,101534.40
2019-02-17T21:19:14.716Z,101534.03
2019-02-17T21:21:23.143Z,101535.70
2019-02-17T21:23:31.155Z,101537.39
2019-02-17T21:25:39.314Z,101531.43
2019-02-17T21:27:47.318Z,101537.52
2019-02-17T21:29:55.217Z,101531.45
2019-02-17T21:32:03.063Z,101536.76
2019-02-17T21:34:11.023Z,101531.63
2019-02-17T21:36:23.229Z,101534.13
2019-02-17T21:38:28.731Z,101526.75
2019-02-17T21:40:36.649Z,101534.50
2019-02-17T21:42:44.951Z,101521.85
2019-02-17T21:44:52.766Z,101528.83
2019-02-17T21:47:00.528Z,101529.25
2019-02-17T21:49:08.621Z,101523.66
2019-02-17T21:51:16.774Z,101520.20
2019-02-17T21:53:24.696Z,101521.58
2019-02-17T21:55:32.789Z,101525.50
2019-02-17T21:57:42.226Z,101521.58
2019-02-17T21:59:50.120Z,101522.05
2019-02-17T22:01:58.013Z,101522.05
2019-02-17T22:04:06.045Z,101523.89
2019-02-17T22:06:14.011Z,101521.44
2019-02-17T22:08:21.731Z,101523.22
2019-02-17T22:10:29.298Z,101522.75
2019-02-17T22:12:37.302Z,101517.99
2019-02-17T22:14:45.115Z,101517.33
2019-02-17T22:16:52.933Z,101528.66
2019-02-17T22:19:01.189Z,101529.67
2019-02-17T22:21:08.916Z,101523.11
2019-02-17T22:23:16.559Z,101527.11
2019-02-17T22:25:24.511Z,101520.70
2019-02-17T22:27:32.391Z,101519.03
2019-02-17T22:29:40.076Z,101515.72
2019-02-17T22:31:48.405Z,101520.59
2019-02-17T22:33:56.107Z,101510.19
2019-02-17T22:36:03.845Z,101514.13
2019-02-17T22:38:11.603Z,101516.23
2019-02-17T22:40:19.370Z,101516.70
2019-02-17T22:42:27.137Z,101513.19
2019-02-17T22:44:34.943Z,101517.08
2019-02-17T22:46:42.731Z,101512.03
2019-02-17T22:48:50.497Z,101512.55
2019-02-17T22:50:58.345Z,101511.97
2019-02-17T22:53:05.999Z,101511.66
2019-02-17T22:55:14.092Z,101509.86
2019-02-17T22:57:22.080Z,101506.82
2019-02-17T22:59:29.786Z,101515.66
2019-02-17T23:01:37.639Z,101510.80
2019-02-17T23:03:45.478Z,101508.28
2019-02-17T23:05:53.279Z,101509.03
2019-02-17T23:08:01.000Z,101504.42
2019-02-17T23:10:09.187Z,101509.20
2019-02-17T23:12:17.504Z,101507.44
2019-02-17T23:14:25.227Z,101509.57
2019-02-17T23:16:32.763Z,101513.50
2019-02-17T23:18:40.428Z,101510.03
2019-02-17T23:20:48.095Z,101507.81
2019-02-17T23:22:55.757Z,101508.63
2019-02-17T23:25:05.202Z,101506.56
2019-02-17T23:27:13.239Z,101509.20
2019-02-17T23:29:21.072Z,101506.65
2019-02-17T23:31:28.872Z,101502.66
2019-02-17T23:33:36.685Z,101508.04
2019-02-17T23:35:44.526Z,101505.48
2019-02-17T23:37:52.251Z,101509.13
2019-02-17T23:40:00.090Z,101507.59
2019-02-17T23:42:07.967Z,101504.11
2019-02-17T23:44:15.705Z,101505.03
2019-02-17T23:46:23.486Z,101501.50
2019-02-17T23:48:31.209Z,101501.81
2019-02-17T23:50:38.919Z,101502.33
2019-02-17T23:52:46.685Z,101501.80
2019-02-17T23:54:54.357Z,101494.02
2019-02-17T23:57:01.836Z,101491.77
2019-02-17T23:59:09.743Z,101489.65
